createdAt,value
2018-04-20T00:00:09.035Z,65.05
2018-04-20T00:01:19.238Z,65.43
2018-04-20T00:02:29.416Z,65.72
2018-04-20T00:03:39.353Z,65.72
2018-04-20T00:04:49.517Z,65.23
2018-04-20T00:05:59.760Z,65.53
2018-04-20T00:07:09.915Z,65.49
2018-04-20T00:08:20.094Z,65.69
2018-04-20T00:09:30.238Z,65.23
2018-04-20T00:10:40.258Z,65.88
2018-04-20T00:11:50.399Z,65.91
2018-04-20T00:13:00.548Z,66.07
2018-04-20T00:14:10.496Z,65.88
2018-04-20T00:15:20.647Z,66.07
2018-04-20T00:16:30.822Z,66.26
2018-04-20T00:17:40.801Z,66.26
2018-04-20T00:18:50.966Z,65.97
2018-04-20T00:20:01.134Z,66.07
2018-04-20T00:21:11.275Z,66.64
2018-04-20T00:22:21.473Z,66.55
2018-04-20T00:23:31.604Z,67.13
2018-04-20T00:24:41.832Z,66.55
2018-04-20T00:25:51.979Z,66.64
2018-04-20T00:27:02.372Z,66.74
2018-04-20T00:28:12.533Z,66.74
2018-04-20T00:29:22.694Z,67.03
2018-04-20T00:30:32.932Z,66.64
2018-04-20T00:31:43.105Z,66.64
2018-04-20T00:32:53.285Z,66.36
2018-04-20T00:34:03.460Z,66.46
2018-04-20T00:35:13.841Z,66.46
2018-04-20T00:36:24.043Z,66.07
2018-04-20T00:37:34.273Z,66.16
2018-04-20T00:38:44.500Z,66.07
2018-04-20T00:39:54.412Z,66.07
2018-04-20T00:41:04.549Z,66.26
2018-04-20T00:42:14.708Z,66.26
2018-04-20T00:43:24.900Z,66.26
2018-04-20T00:44:35.069Z,66.16
2018-04-20T00:45:45.366Z,66.26
2018-04-20T00:46:55.584Z,66.36
2018-04-20T00:48:05.767Z,66.46
2018-04-20T00:49:15.929Z,66.55
2018-04-20T00:50:26.081Z,67.13
2018-04-20T00:51:36.218Z,67.03
2018-04-20T00:52:46.372Z,67.22
2018-04-20T00:53:56.512Z,67.22
2018-04-20T00:55:06.676Z,67.03
2018-04-20T00:56:16.847Z,67.32
2018-04-20T00:57:27.061Z,66.84
2018-04-20T00:58:37.238Z,67.32
2018-04-20T00:59:47.436Z,67.61
2018-04-20T01:00:57.657Z,67.22
2018-04-20T01:02:08.940Z,67.61
2018-04-20T01:03:19.162Z,67.57
2018-04-20T01:04:29.337Z,67.51
2018-04-20T01:05:39.595Z,67.96
2018-04-20T01:06:49.571Z,67.7
2018-04-20T01:07:59.789Z,67.51
2018-04-20T01:09:09.924Z,67.7
2018-04-20T01:10:20.075Z,67.19
2018-04-20T01:11:30.219Z,67.76
2018-04-20T01:12:40.377Z,67.47
2018-04-20T01:13:50.541Z,67.76
2018-04-20T01:15:00.537Z,67.38
2018-04-20T01:16:10.688Z,67.76
2018-04-20T01:17:20.833Z,68.05
2018-04-20T01:18:31.008Z,67.76
2018-04-20T01:19:41.143Z,67.96
2018-04-20T01:20:51.351Z,67.96
2018-04-20T01:22:01.521Z,68.24
2018-04-20T01:23:11.711Z,68.44
2018-04-20T01:24:21.849Z,67.86
2018-04-20T01:25:31.973Z,68.05
2018-04-20T01:26:42.115Z,68.34
2018-04-20T01:27:51.873Z,68.24
2018-04-20T01:29:02.029Z,68.53
2018-04-20T01:30:12.302Z,68.63
2018-04-20T01:31:22.561Z,68.15
2018-04-20T01:32:32.745Z,68.63
2018-04-20T01:33:42.991Z,68.34
2018-04-20T01:34:53.190Z,68.34
2018-04-20T01:36:03.322Z,68.73
2018-04-20T01:37:13.559Z,68.63
2018-04-20T01:38:23.727Z,68.63
2018-04-20T01:39:33.962Z,68.59
2018-04-20T01:40:44.322Z,68.79
2018-04-20T01:41:54.209Z,68.98
2018-04-20T01:43:04.360Z,68.69
2018-04-20T01:44:14.631Z,69.36
2018-04-20T01:45:24.517Z,69.17
2018-04-20T01:46:34.814Z,69.36
2018-04-20T01:47:44.984Z,69.36
2018-04-20T01:48:54.888Z,69.84
2018-04-20T01:50:05.052Z,69.81
2018-04-20T01:51:15.263Z,70
2018-04-20T01:52:25.068Z,70.38
2018-04-20T01:53:35.189Z,70.38
2018-04-20T01:54:45.063Z,70.29
2018-04-20T01:55:55.201Z,70.38
2018-04-20T01:57:05.339Z,70.29
2018-04-20T01:58:15.550Z,70.19
2018-04-20T01:59:25.451Z,70.57
2018-04-20T02:00:35.612Z,70.57
2018-04-20T02:01:45.803Z,71.15
2018-04-20T02:02:55.967Z,71.15
2018-04-20T02:04:05.865Z,70.96
2018-04-20T02:05:15.994Z,71.15
2018-04-20T02:06:26.150Z,71.15
2018-04-20T02:07:36.442Z,71.25
2018-04-20T02:08:46.709Z,71.05
2018-04-20T02:09:56.906Z,71.34
2018-04-20T02:11:07.072Z,71.05
2018-04-20T02:12:17.365Z,71.34
2018-04-20T02:13:27.534Z,71.44
2018-04-20T02:14:37.737Z,71.34
2018-04-20T02:15:47.719Z,71.25
2018-04-20T02:16:57.832Z,71.25
2018-04-20T02:18:07.983Z,71.15
2018-04-20T02:19:18.192Z,70.96
2018-04-20T02:20:28.358Z,71.53
2018-04-20T02:21:38.484Z,71.44
2018-04-20T02:22:48.615Z,71.34
2018-04-20T02:23:58.763Z,71.92
2018-04-20T02:25:08.880Z,71.82
2018-04-20T02:26:19.072Z,71.92
2018-04-20T02:27:28.968Z,72.2
2018-04-20T02:28:39.111Z,72.01
2018-04-20T02:29:49.258Z,72.01
2018-04-20T02:30:59.488Z,72.3
2018-04-20T02:32:09.736Z,72.49
2018-04-20T02:33:19.887Z,72.2
2018-04-20T02:34:30.081Z,71.92
2018-04-20T02:35:40.278Z,71.92
2018-04-20T02:36:50.492Z,71.92
2018-04-20T02:38:00.607Z,72.11
2018-04-20T02:39:10.736Z,72.01
2018-04-20T02:40:20.867Z,72.24
2018-04-20T02:41:31.006Z,72.2
2018-04-20T02:42:40.926Z,71.82
2018-04-20T02:43:51.063Z,72.11
2018-04-20T02:45:01.213Z,71.72
2018-04-20T02:46:11.374Z,71.44
2018-04-20T02:47:21.512Z,71.92
2018-04-20T02:48:31.795Z,72.2
2018-04-20T02:49:41.972Z,72.01
2018-04-20T02:50:52.126Z,72.3
2018-04-20T02:52:02.297Z,72.39
2018-04-20T02:53:12.479Z,72.2
2018-04-20T02:54:22.616Z,72.2
2018-04-20T02:55:32.764Z,71.82
2018-04-20T02:56:42.903Z,72.49
2018-04-20T02:57:53.133Z,72.01
2018-04-20T02:59:03.342Z,72.68
2018-04-20T03:00:13.612Z,72.39
2018-04-20T03:01:23.747Z,72.68
2018-04-20T03:02:33.934Z,72.68
2018-04-20T03:03:44.104Z,72.88
2018-04-20T03:04:54.290Z,72.49
2018-04-20T03:06:04.445Z,72.94
2018-04-20T03:07:14.089Z,73.22
2018-04-20T03:08:24.043Z,73.03
2018-04-20T03:09:34.335Z,73.13
2018-04-20T03:10:44.596Z,73.13
2018-04-20T03:11:54.848Z,73.32
2018-04-20T03:13:05.055Z,73.41
2018-04-20T03:14:15.268Z,73.41
2018-04-20T03:15:25.399Z,73.61
2018-04-20T03:16:35.634Z,73.7
2018-04-20T03:17:45.825Z,73.51
2018-04-20T03:18:55.999Z,74.18
2018-04-20T03:20:06.252Z,74.08
2018-04-20T03:21:16.410Z,74.27
2018-04-20T03:22:26.607Z,74.62
2018-04-20T03:23:36.740Z,74.33
2018-04-20T03:24:46.876Z,75.01
2018-04-20T03:25:57.022Z,74.82
2018-04-20T03:27:07.158Z,74.72
2018-04-20T03:28:17.385Z,74.82
2018-04-20T03:29:28.552Z,75.48
2018-04-20T03:30:38.719Z,75.2
2018-04-20T03:31:48.847Z,75.68
2018-04-20T03:32:58.998Z,75.77
2018-04-20T03:34:09.145Z,75.68
2018-04-20T03:35:19.315Z,75.77
2018-04-20T03:36:29.470Z,76.25
2018-04-20T03:37:39.647Z,76.06
2018-04-20T03:38:49.817Z,76.35
2018-04-20T03:40:00.038Z,76.35
2018-04-20T03:41:09.959Z,76.35
2018-04-20T03:42:20.093Z,76.54
2018-04-20T03:43:30.242Z,76.25
2018-04-20T03:44:40.702Z,76.44
2018-04-20T03:45:50.824Z,76.44
2018-04-20T03:47:00.987Z,76.06
2018-04-20T03:48:11.132Z,76.35
2018-04-20T03:49:21.442Z,76.35
2018-04-20T03:50:31.598Z,76.35
2018-04-20T03:51:41.753Z,76.54
2018-04-20T03:52:52.017Z,76.35
2018-04-20T03:54:02.186Z,76.44
2018-04-20T03:55:12.340Z,76.25
2018-04-20T03:56:22.341Z,76.44
2018-04-20T03:57:32.550Z,76.35
2018-04-20T03:58:42.745Z,76.31
2018-04-20T03:59:52.947Z,76.54
2018-04-20T04:01:03.203Z,76.73
2018-04-20T04:02:13.330Z,76.98
2018-04-20T04:03:23.495Z,77.5
2018-04-20T04:04:33.745Z,77.36
2018-04-20T04:05:43.944Z,77.21
2018-04-20T04:06:53.842Z,77.21
2018-04-20T04:08:03.716Z,77.02
2018-04-20T04:09:13.840Z,77.02
2018-04-20T04:10:23.982Z,76.98
2018-04-20T04:11:34.129Z,77.4
2018-04-20T04:12:44.292Z,77.17
2018-04-20T04:13:54.534Z,77.78
2018-04-20T04:15:04.855Z,77.4
2018-04-20T04:16:15.051Z,77.31
2018-04-20T04:17:24.918Z,77.26
2018-04-20T04:18:35.049Z,77.65
2018-04-20T04:19:45.238Z,77.75
2018-04-20T04:20:55.397Z,77.55
2018-04-20T04:22:05.666Z,77.55
2018-04-20T04:23:15.957Z,77.46
2018-04-20T04:24:25.838Z,77.84
2018-04-20T04:25:36.100Z,78.13
2018-04-20T04:26:46.273Z,77.94
2018-04-20T04:27:56.425Z,78.13
2018-04-20T04:29:06.567Z,78.42
2018-04-20T04:30:16.763Z,78.61
2018-04-20T04:31:27.013Z,78.51
2018-04-20T04:32:37.215Z,78.42
2018-04-20T04:33:48.131Z,78.42
2018-04-20T04:34:58.362Z,78.51
2018-04-20T04:36:08.828Z,78.32
2018-04-20T04:37:19.077Z,78.32
2018-04-20T04:38:29.323Z,78.42
2018-04-20T04:39:39.539Z,78.61
2018-04-20T04:40:49.722Z,78.32
2018-04-20T04:42:00.011Z,78.51
2018-04-20T04:43:10.151Z,78.7
2018-04-20T04:44:20.073Z,78.89
2018-04-20T04:45:30.015Z,78.89
2018-04-20T04:46:40.254Z,79.28
2018-04-20T04:47:50.460Z,79.18
2018-04-20T04:49:00.780Z,79.37
2018-04-20T04:50:10.948Z,79.37
2018-04-20T04:51:21.105Z,79.08
2018-04-20T04:52:31.259Z,78.99
2018-04-20T04:53:41.427Z,79.08
2018-04-20T04:54:51.497Z,79.37
2018-04-20T04:56:01.684Z,79.37
2018-04-20T04:57:11.895Z,79.66
2018-04-20T04:58:22.053Z,79.47
2018-04-20T04:59:32.187Z,79.47
2018-04-20T05:00:42.455Z,79.95
2018-04-20T05:01:52.623Z,79.66
2018-04-20T05:03:02.776Z,79.85
2018-04-20T05:04:12.673Z,79.85
2018-04-20T05:05:22.858Z,79.28
2018-04-20T05:06:33.005Z,79.75
2018-04-20T05:08:59.334Z,79.18
2018-04-20T05:10:09.683Z,79.08
2018-04-20T05:11:19.868Z,78.99
2018-04-20T05:12:30.113Z,79.37
2018-04-20T05:13:40.277Z,79.41
2018-04-20T05:14:50.510Z,79.28
2018-04-20T05:16:00.672Z,79.41
2018-04-20T05:17:10.858Z,79.13
2018-04-20T05:18:21.031Z,79.32
2018-04-20T05:19:31.171Z,79.22
2018-04-20T05:20:41.355Z,79.03
2018-04-20T05:21:51.496Z,78.93
2018-04-20T05:23:01.778Z,79.22
2018-04-20T05:24:11.922Z,79.22
2018-04-20T05:25:22.144Z,79.03
2018-04-20T05:26:32.153Z,79.6
2018-04-20T05:27:42.362Z,78.74
2018-04-20T05:28:52.651Z,79.8
2018-04-20T05:30:02.859Z,79.22
2018-04-20T05:31:13.185Z,78.55
2018-04-20T05:32:23.476Z,78.93
2018-04-20T05:33:33.677Z,78.93
2018-04-20T05:34:43.570Z,78.84
2018-04-20T05:35:53.698Z,78.84
2018-04-20T05:37:03.848Z,79.13
2018-04-20T05:38:14.055Z,79.41
2018-04-20T05:39:24.263Z,79.22
2018-04-20T05:40:34.461Z,79.41
2018-04-20T05:41:44.731Z,79.32
2018-04-20T05:42:54.905Z,79.47
2018-04-20T05:44:05.051Z,79.28
2018-04-20T05:45:15.227Z,79.51
2018-04-20T05:46:25.367Z,79.13
2018-04-20T05:47:35.497Z,79.47
2018-04-20T05:48:45.795Z,79.28
2018-04-20T05:49:55.591Z,79.13
2018-04-20T05:51:05.740Z,79.28
2018-04-20T05:52:16.119Z,79.51
2018-04-20T05:53:26.290Z,79.32
2018-04-20T05:54:36.445Z,79.22
2018-04-20T05:55:46.645Z,78.84
2018-04-20T05:56:56.839Z,78.74
2018-04-20T05:58:06.985Z,79.13
2018-04-20T05:59:17.144Z,78.64
2018-04-20T06:00:27.277Z,78.84
2018-04-20T06:01:37.462Z,78.74
2018-04-20T06:02:47.592Z,78.49
2018-04-20T06:03:58.103Z,78.3
2018-04-20T06:05:08.267Z,78.4
2018-04-20T06:06:18.424Z,78.3
2018-04-20T06:07:28.573Z,78.11
2018-04-20T06:08:38.858Z,78.2
2018-04-20T06:09:49.048Z,78.2
2018-04-20T06:10:58.834Z,77.73
2018-04-20T06:12:09.048Z,78.02
2018-04-20T06:13:19.219Z,77.73
2018-04-20T06:14:29.476Z,77.76
2018-04-20T06:15:39.696Z,77.09
2018-04-20T06:16:49.875Z,77.29
2018-04-20T06:18:00.017Z,76.9
2018-04-20T06:19:09.897Z,76.71
2018-04-20T06:20:20.062Z,76.9
2018-04-20T06:21:29.881Z,77
2018-04-20T06:22:40.034Z,76.52
2018-04-20T06:23:50.206Z,76.9
2018-04-20T06:25:00.391Z,76.42
2018-04-20T06:26:10.386Z,76.23
2018-04-20T06:27:20.530Z,76.42
2018-04-20T06:28:30.676Z,76.23
2018-04-20T06:29:40.970Z,76.14
2018-04-20T06:30:50.937Z,76.32
2018-04-20T06:32:01.068Z,76.23
2018-04-20T06:33:11.215Z,76.23
2018-04-20T06:34:21.367Z,75.89
2018-04-20T06:35:31.535Z,75.98
2018-04-20T06:36:41.677Z,75.89
2018-04-20T06:37:51.939Z,75.98
2018-04-20T06:39:02.099Z,75.6
2018-04-20T06:40:12.338Z,75.4
2018-04-20T06:41:22.480Z,75.6
2018-04-20T06:42:32.708Z,75.5
2018-04-20T06:43:42.966Z,75.02
2018-04-20T06:44:53.146Z,74.93
2018-04-20T06:46:03.443Z,75.21
2018-04-20T06:47:13.680Z,74.73
2018-04-20T06:48:23.894Z,74.73
2018-04-20T06:49:34.115Z,74.39
2018-04-20T06:50:44.248Z,74.54
2018-04-20T06:51:54.507Z,74.1
2018-04-20T06:53:04.739Z,74.39
2018-04-20T06:54:15.108Z,74.39
2018-04-20T06:55:25.307Z,74.19
2018-04-20T06:56:35.482Z,73.91
2018-04-20T06:57:45.853Z,73.91
2018-04-20T06:58:55.849Z,73.62
2018-04-20T07:00:06.004Z,73.72
2018-04-20T07:01:16.283Z,73.52
2018-04-20T07:02:26.528Z,73.75
2018-04-20T07:03:36.537Z,73.33
2018-04-20T07:04:46.746Z,73.24
2018-04-20T07:05:57.273Z,73.37
2018-04-20T07:07:07.555Z,73.37
2018-04-20T07:08:17.770Z,73.37
2018-04-20T07:09:27.923Z,72.79
2018-04-20T07:10:38.137Z,72.41
2018-04-20T07:11:48.338Z,72.22
2018-04-20T07:12:58.585Z,72.02
2018-04-20T07:14:08.753Z,72.25
2018-04-20T07:15:18.940Z,72.16
2018-04-20T07:16:28.900Z,71.77
2018-04-20T07:17:39.124Z,71.58
2018-04-20T07:18:48.763Z,71.67
2018-04-20T07:19:58.934Z,71.39
2018-04-20T07:21:09.190Z,71.48
2018-04-20T07:22:19.398Z,71.39
2018-04-20T07:23:29.680Z,71.48
2018-04-20T07:24:39.584Z,71.1
2018-04-20T07:25:49.507Z,70.9
2018-04-20T07:26:59.693Z,70.84
2018-04-20T07:28:09.941Z,70.46
2018-04-20T07:29:20.226Z,70.37
2018-04-20T07:30:30.422Z,69.98
2018-04-20T07:31:40.670Z,69.79
2018-04-20T07:32:50.831Z,69.89
2018-04-20T07:34:00.994Z,69.79
2018-04-20T07:35:11.365Z,69.5
2018-04-20T07:36:21.534Z,69.34
2018-04-20T07:37:31.687Z,69.06
2018-04-20T07:38:41.836Z,68.76
2018-04-20T07:39:52.227Z,68.96
2018-04-20T07:41:02.443Z,68.86
2018-04-20T07:42:12.650Z,68.19
2018-04-20T07:43:22.564Z,68.09
2018-04-20T07:44:32.726Z,68.22
2018-04-20T07:45:42.897Z,67.55
2018-04-20T07:46:52.715Z,67.55
2018-04-20T07:48:02.865Z,67.55
2018-04-20T07:49:13.046Z,67.07
2018-04-20T07:50:23.208Z,66.68
2018-04-20T07:51:33.464Z,66.81
2018-04-20T07:52:43.672Z,66.14
2018-04-20T07:53:53.853Z,66.24
2018-04-20T07:55:04.101Z,65.75
2018-04-20T07:56:14.305Z,65.11
2018-04-20T07:57:24.549Z,65.11
2018-04-20T07:58:34.513Z,64.82
2018-04-20T07:59:44.672Z,64.92
2018-04-20T08:00:54.347Z,64.56
2018-04-20T08:02:04.281Z,63.6
2018-04-20T08:03:14.226Z,62.66
2018-04-20T08:04:24.242Z,61.93
2018-04-20T08:05:36.194Z,60.35
2018-04-20T08:06:46.340Z,58.57
2018-04-20T08:07:57.270Z,58.04
2018-04-20T08:09:08.663Z,56.92
2018-04-20T08:10:18.910Z,55.4
2018-04-20T08:11:29.158Z,54.58
2018-04-20T08:12:39.423Z,54.02
2018-04-20T08:13:50.643Z,53.37
2018-04-20T08:15:00.912Z,52.52
2018-04-20T08:16:11.079Z,50.38
2018-04-20T08:17:21.246Z,49.73
2018-04-20T08:18:31.166Z,49.56
2018-04-20T08:19:41.068Z,49.49
2018-04-20T08:20:51.737Z,48.71
2018-04-20T08:22:01.859Z,48.05
2018-04-20T08:23:12.086Z,47.37
2018-04-20T08:24:22.255Z,46.98
2018-04-20T08:25:32.466Z,46.32
2018-04-20T08:26:42.689Z,46.13
2018-04-20T08:27:52.859Z,45.28
2018-04-20T08:29:03.051Z,45.25
2018-04-20T08:30:13.219Z,45.08
2018-04-20T08:31:23.414Z,44.3
2018-04-20T08:32:33.679Z,44.13
2018-04-20T08:33:44.036Z,43.27
2018-04-20T08:34:54.228Z,43.08
2018-04-20T08:36:04.391Z,42.9
2018-04-20T08:37:14.556Z,42.73
2018-04-20T08:38:24.802Z,42.05
2018-04-20T08:39:34.605Z,41.27
2018-04-20T08:40:44.752Z,41.28
2018-04-20T08:41:54.914Z,41.19
2018-04-20T08:43:05.233Z,41.48
2018-04-20T08:44:15.403Z,40.53
2018-04-20T08:45:25.564Z,40.14
2018-04-20T08:46:35.799Z,39.84
2018-04-20T08:47:45.974Z,39.94
2018-04-20T08:48:56.136Z,39.75
2018-04-20T08:50:06.533Z,39.18
2018-04-20T08:51:16.719Z,39.28
2018-04-20T08:52:27.583Z,38.81
2018-04-20T08:53:37.743Z,38.32
2018-04-20T08:54:47.920Z,38.32
2018-04-20T08:55:58.124Z,38.82
2018-04-20T08:57:08.606Z,37.87
2018-04-20T08:58:18.749Z,37.39
2018-04-20T08:59:28.912Z,36.8
2018-04-20T09:00:38.842Z,36.33
2018-04-20T09:01:49.023Z,36.33
2018-04-20T09:02:59.204Z,36.24
2018-04-20T09:04:09.399Z,36.14
2018-04-20T09:05:19.571Z,36.33
2018-04-20T09:06:29.736Z,35.94
2018-04-20T09:07:39.551Z,35.75
2018-04-20T09:08:49.695Z,35.65
2018-04-20T09:09:59.848Z,34.69
2018-04-20T09:11:09.753Z,34.88
2018-04-20T09:12:19.916Z,34
2018-04-20T09:13:30.097Z,33.9
2018-04-20T09:14:40.266Z,33.98
2018-04-20T09:15:50.490Z,34.47
2018-04-20T09:17:00.704Z,34.86
2018-04-20T09:18:10.945Z,33.89
2018-04-20T09:19:21.136Z,34
2018-04-20T09:20:31.037Z,33.61
2018-04-20T09:21:41.226Z,33.59
2018-04-20T09:22:51.403Z,33.7
2018-04-20T09:24:01.595Z,33.61
2018-04-20T09:25:11.806Z,33.51
2018-04-20T09:26:22.035Z,33.41
2018-04-20T09:27:32.241Z,33.51
2018-04-20T09:28:42.411Z,33.61
2018-04-20T09:29:52.653Z,33.41
2018-04-20T09:31:02.825Z,33.22
2018-04-20T09:32:13.063Z,33.51
2018-04-20T09:33:23.250Z,33.41
2018-04-20T09:34:33.427Z,32.82
2018-04-20T09:35:43.373Z,33.22
2018-04-20T09:36:53.567Z,33.31
2018-04-20T09:38:03.749Z,33.22
2018-04-20T09:39:13.930Z,33.39
2018-04-20T09:40:24.141Z,33.5
2018-04-20T09:41:34.317Z,33.79
2018-04-20T09:42:44.200Z,33.79
2018-04-20T09:43:54.391Z,33.5
2018-04-20T09:45:04.656Z,33.31
2018-04-20T09:46:14.926Z,33.02
2018-04-20T09:47:25.244Z,32.92
2018-04-20T09:48:35.432Z,32.63
2018-04-20T09:49:45.636Z,32.82
2018-04-20T09:50:55.835Z,32.74
2018-04-20T09:52:06.003Z,32.64
2018-04-20T09:53:16.127Z,31.67
2018-04-20T09:54:28.541Z,32.64
2018-04-20T09:57:18.993Z,32.94
2018-04-20T09:59:48.198Z,32.61
2018-04-20T10:01:01.267Z,33.2
2018-04-20T10:02:11.441Z,33.09
2018-04-20T10:03:21.374Z,33.67
2018-04-20T10:04:31.616Z,34.05
2018-04-20T10:05:41.855Z,34.23
2018-04-20T10:06:52.099Z,34.13
2018-04-20T10:08:02.277Z,34.24
2018-04-20T10:09:13.917Z,34.34
2018-04-20T10:10:24.087Z,34.26
2018-04-20T10:11:36.453Z,34.16
2018-04-20T10:12:46.636Z,33.87
2018-04-20T10:13:56.935Z,34.16
2018-04-20T10:15:07.108Z,33.89
2018-04-20T10:17:28.511Z,33.51
2018-04-20T10:18:38.905Z,33.31
2018-04-20T10:19:49.261Z,32.73
2018-04-20T10:20:59.488Z,32.63
2018-04-20T10:22:10.892Z,32.43
2018-04-20T10:23:21.115Z,32.34
2018-04-20T10:24:31.308Z,32.43
2018-04-20T10:25:42.826Z,32.23
2018-04-20T10:26:53.205Z,31.84
2018-04-20T10:28:03.412Z,30.58
2018-04-20T10:29:13.573Z,30.39
2018-04-20T10:30:25.239Z,30.88
2018-04-20T10:31:35.409Z,31.37
2018-04-20T10:32:45.603Z,31.07
2018-04-20T10:33:55.816Z,30.99
2018-04-20T10:35:06.721Z,31.1
2018-04-20T10:36:16.544Z,30.81
2018-04-20T10:37:26.716Z,30.62
2018-04-20T10:38:40.319Z,30.71
2018-04-20T10:39:50.487Z,30.71
2018-04-20T10:41:00.715Z,30.52
2018-04-20T10:42:11.018Z,29.94
2018-04-20T10:43:21.231Z,29.53
2018-04-20T10:44:31.453Z,29.33
2018-04-20T10:45:41.672Z,29.43
2018-04-20T10:46:51.859Z,29.62
2018-04-20T10:48:02.034Z,29.6
2018-04-20T10:49:12.197Z,29.62
2018-04-20T10:50:22.417Z,29.72
2018-04-20T10:51:32.617Z,29.82
2018-04-20T10:52:42.825Z,30.01
2018-04-20T10:53:53.102Z,30.02
2018-04-20T10:55:03.295Z,29.83
2018-04-20T10:56:13.503Z,29.83
2018-04-20T10:57:23.727Z,28.95
2018-04-20T10:58:33.925Z,29.14
2018-04-20T10:59:44.206Z,29.06
2018-04-20T11:00:54.151Z,29.24
2018-04-20T11:02:04.607Z,29.14
2018-04-20T11:03:14.873Z,29.43
2018-04-20T11:04:25.175Z,28.95
2018-04-20T11:05:35.096Z,29.14
2018-04-20T11:06:45.438Z,29.14
2018-04-20T11:07:55.748Z,28.75
2018-04-20T11:09:05.663Z,28.45
2018-04-20T11:10:15.830Z,28.65
2018-04-20T11:11:26.075Z,28.36
2018-04-20T11:12:36.402Z,28.45
2018-04-20T11:13:46.579Z,28.54
2018-04-20T11:14:56.774Z,28.85
2018-04-20T11:16:06.930Z,28.85
2018-04-20T11:17:18.159Z,28.77
2018-04-20T11:18:28.364Z,28.86
2018-04-20T11:19:38.528Z,28.17
2018-04-20T11:20:48.712Z,27.78
2018-04-20T11:21:58.647Z,27.67
2018-04-20T11:23:08.820Z,27.87
2018-04-20T11:24:19.004Z,26.78
2018-04-20T11:25:29.197Z,26.56
2018-04-20T11:26:39.371Z,27.35
2018-04-20T11:27:49.579Z,27.06
2018-04-20T11:28:59.775Z,27.15
2018-04-20T11:30:10.035Z,27.25
2018-04-20T11:31:20.202Z,27.95
2018-04-20T11:32:30.394Z,27.56
2018-04-20T11:33:40.605Z,27.85
2018-04-20T11:34:50.801Z,27.66
2018-04-20T11:36:01.027Z,27.95
2018-04-20T11:37:11.274Z,27.95
2018-04-20T11:38:21.503Z,27.95
2018-04-20T11:39:31.794Z,27.95
2018-04-20T11:40:42.016Z,28.05
2018-04-20T11:41:52.212Z,27.95
2018-04-20T11:43:02.383Z,28.15
2018-04-20T11:44:12.566Z,28.25
2018-04-20T11:45:22.827Z,27.47
2018-04-20T11:46:33.053Z,27.77
2018-04-20T11:47:43.314Z,27.87
2018-04-20T11:48:53.566Z,27.98
2018-04-20T11:50:03.769Z,27.39
2018-04-20T11:51:13.955Z,27.19
2018-04-20T11:52:24.143Z,27.37
2018-04-20T11:53:34.415Z,27.37
2018-04-20T11:54:44.619Z,27.28
2018-04-20T11:55:54.836Z,27.49
2018-04-20T11:57:05.084Z,26.72
2018-04-20T11:58:15.311Z,26.81
2018-04-20T11:59:25.491Z,26.61
2018-04-20T12:00:35.733Z,26.62
2018-04-20T12:01:45.977Z,26.7
2018-04-20T12:02:56.180Z,26.9
2018-04-20T12:04:06.473Z,26.9
2018-04-20T12:05:16.685Z,26.51
2018-04-20T12:06:26.963Z,26.12
2018-04-20T12:07:37.302Z,26.32
2018-04-20T12:08:47.534Z,26.12
2018-04-20T12:09:57.790Z,26.14
2018-04-20T12:11:07.439Z,26.14
2018-04-20T12:12:17.697Z,26.04
2018-04-20T12:13:28.119Z,25.84
2018-04-20T12:14:37.798Z,26.04
2018-04-20T12:15:47.787Z,25.54
2018-04-20T12:16:57.785Z,25.54
2018-04-20T12:18:07.775Z,25.54
2018-04-20T12:19:17.999Z,25.62
2018-04-20T12:20:28.278Z,25.81
2018-04-20T12:21:38.500Z,25.42
2018-04-20T12:22:48.690Z,25.61
2018-04-20T12:23:58.931Z,25.42
2018-04-20T12:25:09.138Z,25.33
2018-04-20T12:26:19.364Z,25.24
2018-04-20T12:27:29.382Z,25.24
2018-04-20T12:28:39.657Z,25.52
2018-04-20T12:29:49.865Z,25.33
2018-04-20T12:31:00.100Z,25.43
2018-04-20T12:32:10.301Z,25.81
2018-04-20T12:33:20.506Z,25.81
2018-04-20T12:34:30.749Z,25.81
2018-04-20T12:35:40.955Z,25.5
2018-04-20T12:36:51.192Z,25.79
2018-04-20T12:38:01.413Z,25.6
2018-04-20T12:39:11.728Z,25.21
2018-04-20T12:40:21.920Z,25.59
2018-04-20T12:41:32.107Z,25.98
2018-04-20T12:42:42.299Z,26.17
2018-04-20T12:43:52.480Z,26.46
2018-04-20T12:45:02.728Z,26.56
2018-04-20T12:46:12.560Z,26.65
2018-04-20T12:47:22.735Z,26.45
2018-04-20T12:48:32.930Z,26.46
2018-04-20T12:49:43.153Z,26.67
2018-04-20T12:50:53.384Z,26.17
2018-04-20T12:52:03.576Z,26.56
2018-04-20T12:53:13.774Z,26.37
2018-04-20T12:54:23.972Z,26.86
2018-04-20T12:55:34.171Z,26.75
2018-04-20T12:56:44.341Z,26.55
2018-04-20T12:57:54.588Z,26.83
2018-04-20T12:59:04.858Z,26.93
2018-04-20T13:00:15.140Z,27.11
2018-04-20T13:01:25.367Z,27.21
2018-04-20T13:02:35.308Z,27.1
2018-04-20T13:03:45.500Z,27.29
2018-04-20T13:04:55.455Z,27.78
2018-04-20T13:06:05.691Z,27.88
2018-04-20T13:07:15.630Z,27.98
2018-04-20T13:08:25.822Z,27.88
2018-04-20T13:09:36.017Z,28.16
2018-04-20T13:10:46.184Z,28.45
2018-04-20T13:11:56.385Z,28.65
2018-04-20T13:13:06.593Z,29.13
2018-04-20T13:14:16.879Z,29.13
2018-04-20T13:15:26.835Z,28.74
2018-04-20T13:16:37.182Z,28.83
2018-04-20T13:17:47.196Z,28.83
2018-04-20T13:18:57.417Z,28.74
2018-04-20T13:20:07.622Z,28.64
2018-04-20T13:21:17.791Z,28.14
2018-04-20T13:22:27.748Z,28.33
2018-04-20T13:23:38.010Z,28.43
2018-04-20T13:24:48.272Z,27.95
2018-04-20T13:25:58.520Z,27.84
2018-04-20T13:27:08.798Z,27.55
2018-04-20T13:28:18.986Z,27.84
2018-04-20T13:29:29.210Z,27.65
2018-04-20T13:30:39.449Z,27.26
2018-04-20T13:31:49.664Z,27.65
2018-04-20T13:32:59.651Z,28.14
2018-04-20T13:34:10.027Z,27.94
2018-04-20T13:35:20.275Z,28.43
2018-04-20T13:36:30.499Z,28.23
2018-04-20T13:37:40.711Z,27.94
2018-04-20T13:38:50.624Z,27.75
2018-04-20T13:40:00.897Z,27.64
2018-04-20T13:41:11.087Z,26.86
2018-04-20T13:42:21.326Z,26.95
2018-04-20T13:43:31.560Z,27.15
2018-04-20T13:44:41.736Z,27.44
2018-04-20T13:45:52.017Z,27.44
2018-04-20T13:47:01.861Z,27.64
2018-04-20T13:48:12.122Z,27.83
2018-04-20T13:49:22.382Z,27.73
2018-04-20T13:50:32.665Z,27.72
2018-04-20T13:51:42.884Z,27.91
2018-04-20T13:52:53.163Z,27.72
2018-04-20T13:54:03.405Z,26.93
2018-04-20T13:55:13.606Z,27.13
2018-04-20T13:56:23.810Z,26.93
2018-04-20T13:57:34.005Z,27.91
2018-04-20T13:58:44.200Z,27.62
2018-04-20T13:59:54.441Z,27.72
2018-04-20T14:01:04.676Z,27.72
2018-04-20T14:02:14.909Z,28.4
2018-04-20T14:03:26.583Z,28.3
2018-04-20T14:04:36.843Z,27.62
2018-04-20T14:05:47.095Z,27.62
2018-04-20T14:06:57.278Z,27.72
2018-04-20T14:08:07.539Z,28.3
2018-04-20T14:10:29.570Z,27.91
2018-04-20T14:11:39.779Z,27.7
2018-04-20T14:12:50.102Z,27.7
2018-04-20T14:14:00.566Z,28.29
2018-04-20T14:15:10.828Z,28.39
2018-04-20T14:16:20.894Z,28.19
2018-04-20T14:17:31.153Z,28.29
2018-04-20T14:18:41.347Z,27.61
2018-04-20T14:19:51.775Z,27.59
2018-04-20T14:21:01.999Z,27.79
2018-04-20T14:22:12.209Z,28.28
2018-04-20T14:23:22.446Z,28.08
2018-04-20T14:24:32.729Z,27.79
2018-04-20T14:25:42.961Z,28.18
2018-04-20T14:26:53.159Z,28.18
2018-04-20T14:28:03.435Z,28.18
2018-04-20T14:29:13.648Z,28.47
2018-04-20T14:30:23.870Z,28.08
2018-04-20T14:31:34.113Z,27.59
2018-04-20T14:32:44.086Z,27.4
2018-04-20T14:33:54.316Z,28.07
2018-04-20T14:35:04.580Z,28.36
2018-04-20T14:36:14.793Z,28.07
2018-04-20T14:37:24.732Z,28.65
2018-04-20T14:38:34.947Z,28.36
2018-04-20T14:39:45.366Z,28.26
2018-04-20T14:40:55.564Z,28.16
2018-04-20T14:42:05.798Z,28.07
2018-04-20T14:43:15.799Z,28.34
2018-04-20T14:44:25.999Z,28.34
2018-04-20T14:45:36.199Z,28.64
2018-04-20T14:46:47.351Z,28.44
2018-04-20T14:47:57.550Z,28.83
2018-04-20T14:49:07.805Z,28.83
2018-04-20T14:50:17.977Z,28.93
2018-04-20T14:51:27.922Z,28.64
2018-04-20T14:52:38.286Z,28.54
2018-04-20T14:53:48.481Z,28.34
2018-04-20T14:54:58.791Z,28.64
2018-04-20T14:56:09.031Z,28.44
2018-04-20T14:57:19.053Z,28.54
2018-04-20T14:58:29.009Z,28.54
2018-04-20T14:59:39.229Z,28.74
2018-04-20T15:00:49.434Z,28.74
2018-04-20T15:01:59.634Z,28.83
2018-04-20T15:03:09.884Z,28.75
2018-04-20T15:04:20.128Z,28.94
2018-04-20T15:05:30.362Z,28.55
2018-04-20T15:06:40.572Z,28.65
2018-04-20T15:07:50.745Z,28.45
2018-04-20T15:09:00.965Z,29.14
2018-04-20T15:10:11.201Z,28.55
2018-04-20T15:11:21.465Z,29.14
2018-04-20T15:12:31.368Z,29.33